sensor_id;sensor_type;location;lat;lon;timestamp;P1;durP1;ratioP1;P2;durP2;ratioP2
12308;SDS011;6217;48.150;17.142;2023-07-29T00:02:03;1.40;;;1.30;;
12308;SDS011;6217;48.150;17.142;2023-07-29T00:06:10;2.38;;;1.45;;
12308;SDS011;6217;48.150;17.142;2023-07-29T00:10:16;1.67;;;1.40;;
12308;SDS011;6217;48.150;17.142;2023-07-29T00:14:21;1.83;;;1.58;;
12308;SDS011;6217;48.150;17.142;2023-07-29T00:18:27;1.35;;;1.20;;
12308;SDS011;6217;48.150;17.142;2023-07-29T00:22:33;3.70;;;1.60;;
12308;SDS011;6217;48.150;17.142;2023-07-29T00:26:39;1.40;;;1.25;;
12308;SDS011;6217;48.150;17.142;2023-07-29T00:30:45;2.13;;;1.23;;
12308;SDS011;6217;48.150;17.142;2023-07-29T00:34:51;1.67;;;1.20;;
12308;SDS011;6217;48.150;17.142;2023-07-29T00:38:57;1.63;;;1.15;;
12308;SDS011;6217;48.150;17.142;2023-07-29T00:43:03;2.38;;;1.45;;
12308;SDS011;6217;48.150;17.142;2023-07-29T00:47:09;1.70;;;1.30;;
12308;SDS011;6217;48.150;17.142;2023-07-29T00:51:16;1.85;;;1.60;;
12308;SDS011;6217;48.150;17.142;2023-07-29T00:55:23;2.97;;;1.33;;
12308;SDS011;6217;48.150;17.142;2023-07-29T00:59:29;3.55;;;1.70;;
12308;SDS011;6217;48.150;17.142;2023-07-29T01:03:37;1.80;;;1.58;;
12308;SDS011;6217;48.150;17.142;2023-07-29T01:12:44;1.75;;;1.42;;
12308;SDS011;6217;48.150;17.142;2023-07-29T01:17:00;2.38;;;1.55;;
12308;SDS011;6217;48.150;17.142;2023-07-29T01:21:09;3.28;;;1.40;;
12308;SDS011;6217;48.150;17.142;2023-07-29T01:25:17;4.20;;;1.65;;
12308;SDS011;6217;48.150;17.142;2023-07-29T01:29:23;1.30;;;1.20;;
12308;SDS011;6217;48.150;17.142;2023-07-29T01:33:34;1.60;;;1.50;;
12308;SDS011;6217;48.150;17.142;2023-07-29T01:37:48;2.10;;;1.60;;
12308;SDS011;6217;48.150;17.142;2023-07-29T01:42:01;1.92;;;1.50;;
12308;SDS011;6217;48.150;17.142;2023-07-29T01:46:07;5.97;;;1.50;;
12308;SDS011;6217;48.150;17.142;2023-07-29T01:50:17;3.70;;;1.50;;
12308;SDS011;6217;48.150;17.142;2023-07-29T01:54:24;2.45;;;1.42;;
12308;SDS011;6217;48.150;17.142;2023-07-29T01:58:30;1.70;;;1.30;;
12308;SDS011;6217;48.150;17.142;2023-07-29T02:02:36;1.88;;;1.48;;
12308;SDS011;6217;48.150;17.142;2023-07-29T02:06:42;2.17;;;1.42;;
12308;SDS011;6217;48.150;17.142;2023-07-29T02:10:48;3.67;;;1.55;;
12308;SDS011;6217;48.150;17.142;2023-07-29T02:14:54;2.38;;;1.70;;
12308;SDS011;6217;48.150;17.142;2023-07-29T02:19:00;1.83;;;1.55;;
12308;SDS011;6217;48.150;17.142;2023-07-29T02:23:06;5.00;;;1.88;;
12308;SDS011;6217;48.150;17.142;2023-07-29T02:27:12;1.70;;;1.58;;
12308;SDS011;6217;48.150;17.142;2023-07-29T02:31:20;3.40;;;1.42;;
12308;SDS011;6217;48.150;17.142;2023-07-29T02:35:29;3.40;;;1.73;;
12308;SDS011;6217;48.150;17.142;2023-07-29T02:39:35;2.80;;;1.60;;
12308;SDS011;6217;48.150;17.142;2023-07-29T02:43:42;10.77;;;2.22;;
12308;SDS011;6217;48.150;17.142;2023-07-29T02:47:48;2.17;;;1.73;;
12308;SDS011;6217;48.150;17.142;2023-07-29T02:51:54;2.55;;;1.67;;
12308;SDS011;6217;48.150;17.142;2023-07-29T02:56:00;2.42;;;1.98;;
12308;SDS011;6217;48.150;17.142;2023-07-29T03:00:06;3.67;;;1.40;;
12308;SDS011;6217;48.150;17.142;2023-07-29T03:04:13;2.22;;;1.90;;
12308;SDS011;6217;48.150;17.142;2023-07-29T03:08:19;3.75;;;1.65;;
12308;SDS011;6217;48.150;17.142;2023-07-29T03:12:25;3.25;;;1.85;;
12308;SDS011;6217;48.150;17.142;2023-07-29T03:16:32;1.85;;;1.55;;
12308;SDS011;6217;48.150;17.142;2023-07-29T03:20:39;1.70;;;1.60;;
12308;SDS011;6217;48.150;17.142;2023-07-29T03:24:45;2.00;;;1.45;;
12308;SDS011;6217;48.150;17.142;2023-07-29T03:28:51;1.60;;;1.45;;
12308;SDS011;6217;48.150;17.142;2023-07-29T03:32:57;1.92;;;1.38;;
12308;SDS011;6217;48.150;17.142;2023-07-29T03:37:03;2.13;;;1.88;;
12308;SDS011;6217;48.150;17.142;2023-07-29T03:41:09;1.60;;;1.50;;
12308;SDS011;6217;48.150;17.142;2023-07-29T03:45:16;2.63;;;1.60;;
12308;SDS011;6217;48.150;17.142;2023-07-29T03:49:22;3.50;;;1.70;;
12308;SDS011;6217;48.150;17.142;2023-07-29T03:53:28;2.30;;;1.60;;
12308;SDS011;6217;48.150;17.142;2023-07-29T03:57:34;4.35;;;1.60;;
12308;SDS011;6217;48.150;17.142;2023-07-29T04:01:39;2.60;;;1.90;;
12308;SDS011;6217;48.150;17.142;2023-07-29T04:05:45;2.45;;;1.63;;
12308;SDS011;6217;48.150;17.142;2023-07-29T04:10:03;2.17;;;1.98;;
12308;SDS011;6217;48.150;17.142;2023-07-29T04:14:10;2.28;;;1.80;;
12308;SDS011;6217;48.150;17.142;2023-07-29T04:18:16;3.30;;;1.65;;
12308;SDS011;6217;48.150;17.142;2023-07-29T04:26:32;1.95;;;1.73;;
12308;SDS011;6217;48.150;17.142;2023-07-29T04:30:38;2.45;;;1.90;;
12308;SDS011;6217;48.150;17.142;2023-07-29T04:34:44;6.03;;;1.90;;
12308;SDS011;6217;48.150;17.142;2023-07-29T04:38:50;3.95;;;2.10;;
12308;SDS011;6217;48.150;17.142;2023-07-29T04:42:56;3.72;;;1.77;;
12308;SDS011;6217;48.150;17.142;2023-07-29T04:47:02;3.80;;;1.88;;
12308;SDS011;6217;48.150;17.142;2023-07-29T04:51:08;2.22;;;1.80;;
12308;SDS011;6217;48.150;17.142;2023-07-29T04:55:14;5.55;;;1.80;;
12308;SDS011;6217;48.150;17.142;2023-07-29T04:59:20;4.10;;;2.15;;
12308;SDS011;6217;48.150;17.142;2023-07-29T05:03:26;3.28;;;1.83;;
12308;SDS011;6217;48.150;17.142;2023-07-29T05:07:32;3.33;;;3.03;;
12308;SDS011;6217;48.150;17.142;2023-07-29T05:11:38;2.13;;;1.67;;
12308;SDS011;6217;48.150;17.142;2023-07-29T05:15:44;2.85;;;1.90;;
12308;SDS011;6217;48.150;17.142;2023-07-29T05:19:50;5.82;;;2.00;;
12308;SDS011;6217;48.150;17.142;2023-07-29T05:23:56;3.35;;;1.70;;
12308;SDS011;6217;48.150;17.142;2023-07-29T05:28:02;6.47;;;1.88;;
12308;SDS011;6217;48.150;17.142;2023-07-29T05:32:08;2.05;;;1.88;;
12308;SDS011;6217;48.150;17.142;2023-07-29T05:36:14;2.08;;;1.70;;
12308;SDS011;6217;48.150;17.142;2023-07-29T05:40:21;4.03;;;2.13;;
12308;SDS011;6217;48.150;17.142;2023-07-29T05:44:27;4.35;;;2.00;;
12308;SDS011;6217;48.150;17.142;2023-07-29T05:48:33;3.55;;;1.83;;
12308;SDS011;6217;48.150;17.142;2023-07-29T05:52:39;2.00;;;1.80;;
12308;SDS011;6217;48.150;17.142;2023-07-29T05:56:45;2.25;;;1.80;;
12308;SDS011;6217;48.150;17.142;2023-07-29T06:00:52;3.05;;;2.05;;
12308;SDS011;6217;48.150;17.142;2023-07-29T06:04:59;4.82;;;2.15;;
12308;SDS011;6217;48.150;17.142;2023-07-29T06:09:05;4.65;;;2.13;;
12308;SDS011;6217;48.150;17.142;2023-07-29T06:13:11;2.42;;;2.22;;
12308;SDS011;6217;48.150;17.142;2023-07-29T06:17:17;2.17;;;1.52;;
12308;SDS011;6217;48.150;17.142;2023-07-29T06:21:23;5.18;;;2.08;;
12308;SDS011;6217;48.150;17.142;2023-07-29T06:25:29;2.85;;;1.92;;
12308;SDS011;6217;48.150;17.142;2023-07-29T06:29:35;3.17;;;2.70;;
12308;SDS011;6217;48.150;17.142;2023-07-29T06:33:41;3.10;;;1.38;;
12308;SDS011;6217;48.150;17.142;2023-07-29T06:37:47;4.45;;;1.45;;
12308;SDS011;6217;48.150;17.142;2023-07-29T06:41:53;2.17;;;1.42;;
12308;SDS011;6217;48.150;17.142;2023-07-29T06:45:59;1.48;;;1.30;;
12308;SDS011;6217;48.150;17.142;2023-07-29T06:50:05;2.70;;;1.05;;
12308;SDS011;6217;48.150;17.142;2023-07-29T06:54:11;1.45;;;1.05;;
12308;SDS011;6217;48.150;17.142;2023-07-29T06:58:17;1.20;;;0.80;;
12308;SDS011;6217;48.150;17.142;2023-07-29T07:02:24;2.20;;;0.80;;
12308;SDS011;6217;48.150;17.142;2023-07-29T07:06:29;0.90;;;0.80;;
12308;SDS011;6217;48.150;17.142;2023-07-29T07:10:35;0.88;;;0.80;;
12308;SDS011;6217;48.150;17.142;2023-07-29T07:14:41;0.82;;;0.80;;
12308;SDS011;6217;48.150;17.142;2023-07-29T07:18:47;3.08;;;1.02;;
12308;SDS011;6217;48.150;17.142;2023-07-29T07:22:53;1.67;;;1.08;;
12308;SDS011;6217;48.150;17.142;2023-07-29T07:26:59;1.83;;;0.80;;
12308;SDS011;6217;48.150;17.142;2023-07-29T07:31:05;3.72;;;0.90;;
12308;SDS011;6217;48.150;17.142;2023-07-29T07:35:11;2.45;;;0.90;;
12308;SDS011;6217;48.150;17.142;2023-07-29T07:39:17;2.90;;;1.15;;
12308;SDS011;6217;48.150;17.142;2023-07-29T07:43:23;2.92;;;1.15;;
12308;SDS011;6217;48.150;17.142;2023-07-29T07:47:29;1.40;;;0.85;;
12308;SDS011;6217;48.150;17.142;2023-07-29T07:51:35;4.93;;;1.10;;
12308;SDS011;6217;48.150;17.142;2023-07-29T07:55:41;2.85;;;0.95;;
12308;SDS011;6217;48.150;17.142;2023-07-29T07:59:47;9.00;;;0.98;;
12308;SDS011;6217;48.150;17.142;2023-07-29T08:03:53;1.35;;;0.82;;
12308;SDS011;6217;48.150;17.142;2023-07-29T08:07:59;3.67;;;0.77;;
12308;SDS011;6217;48.150;17.142;2023-07-29T08:12:05;0.80;;;0.80;;
12308;SDS011;6217;48.150;17.142;2023-07-29T08:16:12;2.45;;;0.80;;
12308;SDS011;6217;48.150;17.142;2023-07-29T08:20:18;2.30;;;0.90;;
12308;SDS011;6217;48.150;17.142;2023-07-29T08:24:24;1.33;;;0.70;;
12308;SDS011;6217;48.150;17.142;2023-07-29T08:28:30;0.75;;;0.65;;
12308;SDS011;6217;48.150;17.142;2023-07-29T08:32:42;0.80;;;0.80;;
12308;SDS011;6217;48.150;17.142;2023-07-29T08:36:49;1.13;;;0.52;;
12308;SDS011;6217;48.150;17.142;2023-07-29T08:41:14;2.05;;;0.70;;
12308;SDS011;6217;48.150;17.142;2023-07-29T08:45:31;1.60;;;0.63;;
12308;SDS011;6217;48.150;17.142;2023-07-29T08:49:42;2.95;;;0.73;;
12308;SDS011;6217;48.150;17.142;2023-07-29T08:53:49;1.27;;;0.68;;
12308;SDS011;6217;48.150;17.142;2023-07-29T08:57:55;0.70;;;0.57;;
12308;SDS011;6217;48.150;17.142;2023-07-29T09:02:03;2.58;;;0.60;;
12308;SDS011;6217;48.150;17.142;2023-07-29T09:06:09;0.60;;;0.60;;
12308;SDS011;6217;48.150;17.142;2023-07-29T09:10:16;5.07;;;0.90;;
12308;SDS011;6217;48.150;17.142;2023-07-29T09:14:22;2.20;;;0.50;;
12308;SDS011;6217;48.150;17.142;2023-07-29T09:18:29;0.50;;;0.45;;
12308;SDS011;6217;48.150;17.142;2023-07-29T09:22:36;1.20;;;0.93;;
12308;SDS011;6217;48.150;17.142;2023-07-29T09:26:48;3.15;;;0.90;;
12308;SDS011;6217;48.150;17.142;2023-07-29T09:30:55;1.88;;;0.80;;
12308;SDS011;6217;48.150;17.142;2023-07-29T09:35:01;0.63;;;0.60;;
12308;SDS011;6217;48.150;17.142;2023-07-29T09:39:10;3.25;;;0.52;;
12308;SDS011;6217;48.150;17.142;2023-07-29T09:43:18;0.63;;;0.60;;
12308;SDS011;6217;48.150;17.142;2023-07-29T09:47:25;1.60;;;0.90;;
12308;SDS011;6217;48.150;17.142;2023-07-29T09:51:31;3.25;;;0.70;;
12308;SDS011;6217;48.150;17.142;2023-07-29T09:55:37;3.85;;;0.60;;
12308;SDS011;6217;48.150;17.142;2023-07-29T09:59:43;2.85;;;0.60;;
12308;SDS011;6217;48.150;17.142;2023-07-29T10:03:59;1.00;;;0.68;;
12308;SDS011;6217;48.150;17.142;2023-07-29T10:08:06;3.10;;;0.60;;
12308;SDS011;6217;48.150;17.142;2023-07-29T10:12:13;0.70;;;0.70;;
12308;SDS011;6217;48.150;17.142;2023-07-29T10:16:19;0.75;;;0.70;;
12308;SDS011;6217;48.150;17.142;2023-07-29T10:20:26;0.90;;;0.50;;
12308;SDS011;6217;48.150;17.142;2023-07-29T10:24:32;2.63;;;0.63;;
12308;SDS011;6217;48.150;17.142;2023-07-29T10:28:39;0.50;;;0.50;;
12308;SDS011;6217;48.150;17.142;2023-07-29T10:32:49;2.05;;;0.73;;
12308;SDS011;6217;48.150;17.142;2023-07-29T10:36:57;0.73;;;0.70;;
12308;SDS011;6217;48.150;17.142;2023-07-29T10:41:04;2.25;;;0.70;;
12308;SDS011;6217;48.150;17.142;2023-07-29T10:45:19;0.77;;;0.60;;
12308;SDS011;6217;48.150;17.142;2023-07-29T10:49:26;1.42;;;0.70;;
12308;SDS011;6217;48.150;17.142;2023-07-29T10:57:42;0.60;;;0.60;;
12308;SDS011;6217;48.150;17.142;2023-07-29T11:01:51;0.60;;;0.60;;
12308;SDS011;6217;48.150;17.142;2023-07-29T11:06:01;1.00;;;0.70;;
12308;SDS011;6217;48.150;17.142;2023-07-29T11:10:11;0.80;;;0.80;;
12308;SDS011;6217;48.150;17.142;2023-07-29T11:14:18;0.93;;;0.90;;
12308;SDS011;6217;48.150;17.142;2023-07-29T11:18:28;0.75;;;0.75;;
12308;SDS011;6217;48.150;17.142;2023-07-29T11:22:39;0.90;;;0.90;;
12308;SDS011;6217;48.150;17.142;2023-07-29T11:26:48;3.30;;;1.00;;
12308;SDS011;6217;48.150;17.142;2023-07-29T11:30:54;1.40;;;0.90;;
12308;SDS011;6217;48.150;17.142;2023-07-29T11:35:05;1.58;;;1.35;;
12308;SDS011;6217;48.150;17.142;2023-07-29T11:39:13;1.20;;;1.10;;
12308;SDS011;6217;48.150;17.142;2023-07-29T11:43:19;2.22;;;1.38;;
12308;SDS011;6217;48.150;17.142;2023-07-29T11:47:25;1.00;;;1.00;;
12308;SDS011;6217;48.150;17.142;2023-07-29T11:51:31;2.90;;;1.27;;
12308;SDS011;6217;48.150;17.142;2023-07-29T11:55:37;2.65;;;1.30;;
12308;SDS011;6217;48.150;17.142;2023-07-29T11:59:43;1.88;;;1.20;;
12308;SDS011;6217;48.150;17.142;2023-07-29T12:03:50;1.63;;;1.23;;
12308;SDS011;6217;48.150;17.142;2023-07-29T12:07:56;2.30;;;2.05;;
12308;SDS011;6217;48.150;17.142;2023-07-29T12:12:06;0.98;;;0.88;;
12308;SDS011;6217;48.150;17.142;2023-07-29T12:20:23;1.15;;;1.13;;
12308;SDS011;6217;48.150;17.142;2023-07-29T12:24:30;1.40;;;1.30;;
12308;SDS011;6217;48.150;17.142;2023-07-29T12:28:38;1.30;;;1.17;;
12308;SDS011;6217;48.150;17.142;2023-07-29T12:32:44;1.67;;;1.38;;
12308;SDS011;6217;48.150;17.142;2023-07-29T12:36:51;3.42;;;1.50;;
12308;SDS011;6217;48.150;17.142;2023-07-29T12:40:59;2.97;;;1.40;;
12308;SDS011;6217;48.150;17.142;2023-07-29T12:45:05;1.75;;;1.40;;
12308;SDS011;6217;48.150;17.142;2023-07-29T12:49:12;1.10;;;1.00;;
12308;SDS011;6217;48.150;17.142;2023-07-29T12:53:18;4.32;;;1.30;;
12308;SDS011;6217;48.150;17.142;2023-07-29T12:57:24;2.58;;;1.00;;
12308;SDS011;6217;48.150;17.142;2023-07-29T13:01:29;3.25;;;1.10;;
12308;SDS011;6217;48.150;17.142;2023-07-29T13:05:35;1.30;;;1.20;;
12308;SDS011;6217;48.150;17.142;2023-07-29T13:09:41;1.17;;;1.08;;
12308;SDS011;6217;48.150;17.142;2023-07-29T13:13:47;4.28;;;1.40;;
12308;SDS011;6217;48.150;17.142;2023-07-29T13:17:53;1.42;;;1.33;;
12308;SDS011;6217;48.150;17.142;2023-07-29T13:21:59;1.30;;;1.20;;
12308;SDS011;6217;48.150;17.142;2023-07-29T13:26:07;2.72;;;1.30;;
12308;SDS011;6217;48.150;17.142;2023-07-29T13:30:13;1.98;;;1.33;;
12308;SDS011;6217;48.150;17.142;2023-07-29T13:34:19;14.63;;;2.95;;
12308;SDS011;6217;48.150;17.142;2023-07-29T13:38:25;6.03;;;2.33;;
12308;SDS011;6217;48.150;17.142;2023-07-29T13:42:31;2.70;;;1.27;;
12308;SDS011;6217;48.150;17.142;2023-07-29T13:46:37;1.70;;;1.20;;
12308;SDS011;6217;48.150;17.142;2023-07-29T13:50:42;4.18;;;1.50;;
12308;SDS011;6217;48.150;17.142;2023-07-29T13:54:49;3.33;;;1.40;;
12308;SDS011;6217;48.150;17.142;2023-07-29T13:58:54;2.50;;;1.80;;
12308;SDS011;6217;48.150;17.142;2023-07-29T14:03:00;1.30;;;1.20;;
12308;SDS011;6217;48.150;17.142;2023-07-29T14:07:06;3.67;;;1.63;;
12308;SDS011;6217;48.150;17.142;2023-07-29T14:11:12;7.78;;;2.55;;
12308;SDS011;6217;48.150;17.142;2023-07-29T14:15:18;4.15;;;1.85;;
12308;SDS011;6217;48.150;17.142;2023-07-29T14:19:24;3.90;;;1.83;;
12308;SDS011;6217;48.150;17.142;2023-07-29T14:23:30;4.95;;;1.70;;
12308;SDS011;6217;48.150;17.142;2023-07-29T14:27:37;3.17;;;1.60;;
12308;SDS011;6217;48.150;17.142;2023-07-29T14:31:43;4.65;;;1.80;;
12308;SDS011;6217;48.150;17.142;2023-07-29T14:35:49;3.15;;;1.60;;
12308;SDS011;6217;48.150;17.142;2023-07-29T14:39:56;3.08;;;1.70;;
12308;SDS011;6217;48.150;17.142;2023-07-29T14:44:03;2.80;;;1.60;;
12308;SDS011;6217;48.150;17.142;2023-07-29T14:48:09;3.22;;;1.70;;
12308;SDS011;6217;48.150;17.142;2023-07-29T14:52:15;2.83;;;1.27;;
12308;SDS011;6217;48.150;17.142;2023-07-29T14:56:21;2.90;;;1.40;;
12308;SDS011;6217;48.150;17.142;2023-07-29T15:00:27;3.20;;;1.60;;
12308;SDS011;6217;48.150;17.142;2023-07-29T15:04:33;2.42;;;1.80;;
12308;SDS011;6217;48.150;17.142;2023-07-29T15:08:39;1.95;;;1.40;;
12308;SDS011;6217;48.150;17.142;2023-07-29T15:12:45;2.63;;;1.60;;
12308;SDS011;6217;48.150;17.142;2023-07-29T15:16:51;1.92;;;1.60;;
12308;SDS011;6217;48.150;17.142;2023-07-29T15:20:57;2.92;;;1.48;;
12308;SDS011;6217;48.150;17.142;2023-07-29T15:25:05;3.10;;;1.58;;
12308;SDS011;6217;48.150;17.142;2023-07-29T15:29:14;3.92;;;1.10;;
12308;SDS011;6217;48.150;17.142;2023-07-29T15:33:20;2.67;;;1.40;;
12308;SDS011;6217;48.150;17.142;2023-07-29T15:37:26;1.35;;;1.20;;
12308;SDS011;6217;48.150;17.142;2023-07-29T15:41:32;2.60;;;1.08;;
12308;SDS011;6217;48.150;17.142;2023-07-29T15:45:41;2.92;;;1.40;;
12308;SDS011;6217;48.150;17.142;2023-07-29T15:49:47;6.07;;;1.55;;
12308;SDS011;6217;48.150;17.142;2023-07-29T15:53:53;3.45;;;1.40;;
12308;SDS011;6217;48.150;17.142;2023-07-29T15:57:59;1.85;;;1.27;;
12308;SDS011;6217;48.150;17.142;2023-07-29T16:02:05;3.17;;;1.40;;
12308;SDS011;6217;48.150;17.142;2023-07-29T16:06:13;1.75;;;1.23;;
12308;SDS011;6217;48.150;17.142;2023-07-29T16:10:19;1.90;;;1.25;;
12308;SDS011;6217;48.150;17.142;2023-07-29T16:14:25;2.60;;;1.13;;
12308;SDS011;6217;48.150;17.142;2023-07-29T16:18:31;3.10;;;1.45;;
12308;SDS011;6217;48.150;17.142;2023-07-29T16:22:37;2.28;;;1.30;;
12308;SDS011;6217;48.150;17.142;2023-07-29T16:26:43;2.35;;;1.40;;
12308;SDS011;6217;48.150;17.142;2023-07-29T16:30:49;1.55;;;1.13;;
12308;SDS011;6217;48.150;17.142;2023-07-29T16:34:55;2.90;;;1.30;;
12308;SDS011;6217;48.150;17.142;2023-07-29T16:39:01;2.15;;;1.40;;
12308;SDS011;6217;48.150;17.142;2023-07-29T16:43:08;4.57;;;1.50;;
12308;SDS011;6217;48.150;17.142;2023-07-29T16:47:14;2.22;;;1.13;;
12308;SDS011;6217;48.150;17.142;2023-07-29T16:51:20;1.92;;;1.23;;
12308;SDS011;6217;48.150;17.142;2023-07-29T16:55:26;2.75;;;1.33;;
12308;SDS011;6217;48.150;17.142;2023-07-29T16:59:32;2.13;;;1.00;;
12308;SDS011;6217;48.150;17.142;2023-07-29T17:03:38;2.10;;;1.05;;
12308;SDS011;6217;48.150;17.142;2023-07-29T17:07:44;1.50;;;1.23;;
12308;SDS011;6217;48.150;17.142;2023-07-29T17:11:49;2.85;;;0.90;;
12308;SDS011;6217;48.150;17.142;2023-07-29T17:15:55;1.10;;;1.00;;
12308;SDS011;6217;48.150;17.142;2023-07-29T17:20:01;1.10;;;1.00;;
12308;SDS011;6217;48.150;17.142;2023-07-29T17:24:08;1.48;;;1.00;;
12308;SDS011;6217;48.150;17.142;2023-07-29T17:28:13;3.13;;;1.02;;
12308;SDS011;6217;48.150;17.142;2023-07-29T17:32:19;0.90;;;0.90;;
12308;SDS011;6217;48.150;17.142;2023-07-29T17:36:25;1.23;;;1.00;;
12308;SDS011;6217;48.150;17.142;2023-07-29T17:40:31;1.10;;;0.90;;
12308;SDS011;6217;48.150;17.142;2023-07-29T17:44:37;2.17;;;1.00;;
12308;SDS011;6217;48.150;17.142;2023-07-29T17:48:44;2.83;;;1.00;;
12308;SDS011;6217;48.150;17.142;2023-07-29T17:52:50;1.10;;;1.00;;
12308;SDS011;6217;48.150;17.142;2023-07-29T17:56:56;1.10;;;0.90;;
12308;SDS011;6217;48.150;17.142;2023-07-29T18:01:02;0.80;;;0.75;;
12308;SDS011;6217;48.150;17.142;2023-07-29T18:05:08;1.23;;;1.10;;
12308;SDS011;6217;48.150;17.142;2023-07-29T18:09:14;2.28;;;1.10;;
12308;SDS011;6217;48.150;17.142;2023-07-29T18:13:20;2.33;;;1.02;;
12308;SDS011;6217;48.150;17.142;2023-07-29T18:17:26;2.30;;;1.08;;
12308;SDS011;6217;48.150;17.142;2023-07-29T18:21:32;1.17;;;1.08;;
12308;SDS011;6217;48.150;17.142;2023-07-29T18:25:38;2.00;;;0.90;;
12308;SDS011;6217;48.150;17.142;2023-07-29T18:29:44;1.45;;;1.10;;
12308;SDS011;6217;48.150;17.142;2023-07-29T18:33:50;3.83;;;1.85;;
12308;SDS011;6217;48.150;17.142;2023-07-29T18:37:56;2.20;;;0.98;;
12308;SDS011;6217;48.150;17.142;2023-07-29T18:42:05;1.52;;;1.15;;
12308;SDS011;6217;48.150;17.142;2023-07-29T18:46:11;1.48;;;1.38;;
12308;SDS011;6217;48.150;17.142;2023-07-29T18:50:17;1.40;;;1.13;;
12308;SDS011;6217;48.150;17.142;2023-07-29T18:54:23;3.63;;;1.20;;
12308;SDS011;6217;48.150;17.142;2023-07-29T18:58:29;3.08;;;1.05;;
12308;SDS011;6217;48.150;17.142;2023-07-29T19:02:35;2.60;;;1.80;;
12308;SDS011;6217;48.150;17.142;2023-07-29T19:06:42;1.88;;;1.25;;
12308;SDS011;6217;48.150;17.142;2023-07-29T19:10:48;1.30;;;1.20;;
12308;SDS011;6217;48.150;17.142;2023-07-29T19:14:54;3.63;;;1.20;;
12308;SDS011;6217;48.150;17.142;2023-07-29T19:19:00;2.67;;;1.17;;
12308;SDS011;6217;48.150;17.142;2023-07-29T19:23:06;3.30;;;1.20;;
12308;SDS011;6217;48.150;17.142;2023-07-29T19:27:12;2.15;;;1.10;;
12308;SDS011;6217;48.150;17.142;2023-07-29T19:31:20;2.25;;;1.33;;
12308;SDS011;6217;48.150;17.142;2023-07-29T19:35:26;2.42;;;1.30;;
12308;SDS011;6217;48.150;17.142;2023-07-29T19:39:32;1.30;;;1.20;;
12308;SDS011;6217;48.150;17.142;2023-07-29T19:43:38;5.05;;;1.40;;
12308;SDS011;6217;48.150;17.142;2023-07-29T19:47:44;2.03;;;1.40;;
12308;SDS011;6217;48.150;17.142;2023-07-29T19:51:49;1.27;;;1.10;;
12308;SDS011;6217;48.150;17.142;2023-07-29T19:55:56;1.95;;;1.73;;
12308;SDS011;6217;48.150;17.142;2023-07-29T20:00:02;3.80;;;1.60;;
12308;SDS011;6217;48.150;17.142;2023-07-29T20:04:10;3.13;;;2.00;;
12308;SDS011;6217;48.150;17.142;2023-07-29T20:08:16;2.35;;;1.60;;
12308;SDS011;6217;48.150;17.142;2023-07-29T20:12:22;2.88;;;1.70;;
12308;SDS011;6217;48.150;17.142;2023-07-29T20:16:28;1.65;;;1.40;;
12308;SDS011;6217;48.150;17.142;2023-07-29T20:20:34;1.67;;;1.48;;
12308;SDS011;6217;48.150;17.142;2023-07-29T20:24:40;1.63;;;1.40;;
12308;SDS011;6217;48.150;17.142;2023-07-29T20:28:46;2.10;;;1.25;;
12308;SDS011;6217;48.150;17.142;2023-07-29T20:32:53;2.80;;;1.10;;
12308;SDS011;6217;48.150;17.142;2023-07-29T20:36:59;2.88;;;0.98;;
12308;SDS011;6217;48.150;17.142;2023-07-29T20:41:05;4.47;;;1.30;;
12308;SDS011;6217;48.150;17.142;2023-07-29T20:45:11;1.35;;;1.10;;
12308;SDS011;6217;48.150;17.142;2023-07-29T20:49:17;1.35;;;1.10;;
12308;SDS011;6217;48.150;17.142;2023-07-29T20:53:23;2.80;;;1.17;;
12308;SDS011;6217;48.150;17.142;2023-07-29T20:57:29;1.25;;;1.00;;
12308;SDS011;6217;48.150;17.142;2023-07-29T21:01:35;2.78;;;1.00;;
12308;SDS011;6217;48.150;17.142;2023-07-29T21:05:41;1.73;;;1.13;;
12308;SDS011;6217;48.150;17.142;2023-07-29T21:09:48;1.23;;;1.13;;
12308;SDS011;6217;48.150;17.142;2023-07-29T21:13:54;1.30;;;1.02;;
12308;SDS011;6217;48.150;17.142;2023-07-29T21:18:00;1.20;;;1.05;;
12308;SDS011;6217;48.150;17.142;2023-07-29T21:22:06;3.50;;;0.95;;
12308;SDS011;6217;48.150;17.142;2023-07-29T21:26:12;2.53;;;1.30;;
12308;SDS011;6217;48.150;17.142;2023-07-29T21:30:18;1.58;;;1.10;;
12308;SDS011;6217;48.150;17.142;2023-07-29T21:34:24;1.33;;;1.00;;
12308;SDS011;6217;48.150;17.142;2023-07-29T21:38:30;2.10;;;1.25;;
12308;SDS011;6217;48.150;17.142;2023-07-29T21:42:36;1.75;;;1.25;;
12308;SDS011;6217;48.150;17.142;2023-07-29T21:46:43;1.40;;;1.20;;
12308;SDS011;6217;48.150;17.142;2023-07-29T21:50:52;1.38;;;1.10;;
12308;SDS011;6217;48.150;17.142;2023-07-29T21:55:09;2.95;;;1.40;;
12308;SDS011;6217;48.150;17.142;2023-07-29T21:59:15;1.02;;;0.95;;
12308;SDS011;6217;48.150;17.142;2023-07-29T22:03:21;2.33;;;1.00;;
12308;SDS011;6217;48.150;17.142;2023-07-29T22:07:27;1.63;;;1.00;;
12308;SDS011;6217;48.150;17.142;2023-07-29T22:11:33;1.98;;;1.10;;
12308;SDS011;6217;48.150;17.142;2023-07-29T22:15:39;1.33;;;0.90;;
12308;SDS011;6217;48.150;17.142;2023-07-29T22:19:45;3.70;;;1.00;;
12308;SDS011;6217;48.150;17.142;2023-07-29T22:23:51;2.80;;;0.90;;
12308;SDS011;6217;48.150;17.142;2023-07-29T22:27:57;1.10;;;1.00;;
12308;SDS011;6217;48.150;17.142;2023-07-29T22:32:06;1.65;;;1.10;;
12308;SDS011;6217;48.150;17.142;2023-07-29T22:36:12;1.13;;;0.90;;
12308;SDS011;6217;48.150;17.142;2023-07-29T22:40:18;1.58;;;1.00;;
12308;SDS011;6217;48.150;17.142;2023-07-29T22:44:24;3.45;;;1.00;;
12308;SDS011;6217;48.150;17.142;2023-07-29T22:48:30;1.23;;;0.90;;
12308;SDS011;6217;48.150;17.142;2023-07-29T22:52:36;0.90;;;0.88;;
12308;SDS011;6217;48.150;17.142;2023-07-29T22:56:42;0.85;;;0.70;;
12308;SDS011;6217;48.150;17.142;2023-07-29T23:00:48;1.45;;;1.00;;
12308;SDS011;6217;48.150;17.142;2023-07-29T23:04:56;2.38;;;1.10;;
12308;SDS011;6217;48.150;17.142;2023-07-29T23:09:02;1.30;;;0.90;;
12308;SDS011;6217;48.150;17.142;2023-07-29T23:13:08;1.10;;;1.00;;
12308;SDS011;6217;48.150;17.142;2023-07-29T23:17:14;1.52;;;0.88;;
12308;SDS011;6217;48.150;17.142;2023-07-29T23:21:20;2.90;;;1.00;;
12308;SDS011;6217;48.150;17.142;2023-07-29T23:25:26;1.75;;;1.08;;
12308;SDS011;6217;48.150;17.142;2023-07-29T23:29:33;1.75;;;1.00;;
12308;SDS011;6217;48.150;17.142;2023-07-29T23:33:39;1.77;;;1.38;;
12308;SDS011;6217;48.150;17.142;2023-07-29T23:37:45;3.08;;;1.30;;
12308;SDS011;6217;48.150;17.142;2023-07-29T23:41:51;2.35;;;1.50;;
12308;SDS011;6217;48.150;17.142;2023-07-29T23:45:57;1.85;;;1.02;;
12308;SDS011;6217;48.150;17.142;2023-07-29T23:50:03;1.25;;;1.15;;
12308;SDS011;6217;48.150;17.142;2023-07-29T23:54:10;3.97;;;1.38;;
12308;SDS011;6217;48.150;17.142;2023-07-29T23:58:16;3.05;;;1.15;;
